Terminal Aerodrome Forecast
Issued by NWS Sterling, VA

Current Version | Previous Version | Graphics & Text | Print | Product List | Glossary On
Versions: 1 2 3 4 5 6 7 8 9 10 11 12 13 14 15 16 17 18 19 20 21 22 23 24 25 26
308
FTUS41 KLWX 240159 AAB
TAFIAD
TAF AMD
KIAD 240159Z 2402/2506 07004KT P6SM -RA BKN015 OVC025
     FM240800 02004KT P6SM -RA BKN010 OVC025
     FM241000 02004KT P6SM BKN008 OVC025
     FM241500 10006KT P6SM SCT035 OVC040
     FM241900 13007KT P6SM SCT025 OVC035
     FM250100 11009KT P6SM BKN020 OVC025
     FM250300 10010G17KT P6SM -RA BKN008 OVC025=

USA.gov is the U.S. government's official web portal to all federal, state and local government web resources and services.